createdAt,value
2023-02-21T00:03:18.580Z,1.70
2023-02-21T00:08:57.660Z,1.77
2023-02-21T00:14:36.554Z,1.90
2023-02-21T00:20:18.181Z,1.80
2023-02-21T00:25:57.664Z,2.00
2023-02-21T00:31:38.055Z,1.50
2023-02-21T00:37:17.177Z,2.05
2023-02-21T00:42:56.584Z,1.92
2023-02-21T00:48:40.494Z,2.03
2023-02-21T00:54:20.352Z,2.30
2023-02-21T00:59:59.486Z,2.10
2023-02-21T01:05:38.749Z,2.10
2023-02-21T01:11:18.186Z,1.85
2023-02-21T01:17:04.830Z,1.80
2023-02-21T01:22:48.631Z,1.52
2023-02-21T01:28:27.839Z,2.65
2023-02-21T01:34:07.006Z,2.00
2023-02-21T01:39:46.137Z,2.03
2023-02-21T01:45:42.016Z,1.73
2023-02-21T01:51:23.818Z,1.80
2023-02-21T01:57:02.895Z,2.70
2023-02-21T02:03:02.873Z,4.35
2023-02-21T02:08:46.327Z,2.55
2023-02-21T02:14:31.648Z,1.88
2023-02-21T02:20:17.358Z,2.10
2023-02-21T02:25:59.623Z,2.03
2023-02-21T02:31:58.889Z,2.25
2023-02-21T02:37:33.225Z,2.55
2023-02-21T02:43:04.177Z,1.75
2023-02-21T02:48:38.628Z,2.05
2023-02-21T02:53:59.342Z,2.05
2023-02-21T02:59:26.271Z,2.53
2023-02-21T03:05:13.425Z,2.30
2023-02-21T03:10:54.818Z,2.17
2023-02-21T03:16:41.450Z,1.98
2023-02-21T03:22:07.865Z,2.58
2023-02-21T03:27:31.094Z,2.10
2023-02-21T03:32:56.095Z,2.13
2023-02-21T03:38:18.763Z,2.38
2023-02-21T03:43:39.911Z,2.22
2023-02-21T03:49:00.868Z,2.20
2023-02-21T03:54:24.096Z,2.38
2023-02-21T03:59:47.863Z,2.22
2023-02-21T04:05:09.750Z,2.00
2023-02-21T04:10:33.947Z,2.55
2023-02-21T04:15:58.905Z,1.90
2023-02-21T04:21:20.214Z,1.65
2023-02-21T04:26:43.172Z,1.42
2023-02-21T04:32:04.344Z,1.60
2023-02-21T04:37:26.699Z,1.70
2023-02-21T04:42:48.105Z,2.00
2023-02-21T04:48:08.876Z,1.85
2023-02-21T04:53:29.504Z,1.80
2023-02-21T04:58:50.401Z,1.50
2023-02-21T05:04:11.509Z,1.67
2023-02-21T05:09:32.329Z,2.28
2023-02-21T05:14:53.360Z,2.00
2023-02-21T05:20:14.337Z,2.20
2023-02-21T05:25:35.061Z,1.80
2023-02-21T05:30:56.830Z,2.40
2023-02-21T05:36:19.199Z,1.75
2023-02-21T05:41:46.833Z,1.73
2023-02-21T05:47:07.767Z,1.58
2023-02-21T05:52:28.838Z,1.35
2023-02-21T05:57:49.814Z,2.05
2023-02-21T06:03:10.680Z,1.65
2023-02-21T06:08:31.761Z,1.92
2023-02-21T06:13:54.143Z,1.52
2023-02-21T06:19:16.890Z,2.22
2023-02-21T06:24:37.832Z,1.60
2023-02-21T06:29:59.629Z,1.60
2023-02-21T06:35:20.311Z,1.38
2023-02-21T06:40:41.163Z,1.58
2023-02-21T06:46:02.027Z,1.40
2023-02-21T06:51:29.255Z,1.20
2023-02-21T06:56:50.367Z,1.42
2023-02-21T07:02:20.059Z,1.52
2023-02-21T07:07:57.204Z,1.60
2023-02-21T07:13:17.979Z,1.30
2023-02-21T07:18:38.669Z,1.40
2023-02-21T07:23:59.399Z,1.60
2023-02-21T07:29:20.142Z,1.30
2023-02-21T07:34:40.761Z,1.63
2023-02-21T07:40:01.517Z,1.45
2023-02-21T07:45:22.316Z,1.70
2023-02-21T07:50:44.182Z,1.40
2023-02-21T07:56:05.473Z,1.90
2023-02-21T08:01:27.144Z,1.70
2023-02-21T08:06:49.375Z,1.73
2023-02-21T08:12:10.078Z,1.50
2023-02-21T08:17:30.971Z,1.52
2023-02-21T08:22:51.704Z,1.75
2023-02-21T08:28:13.396Z,1.65
2023-02-21T08:33:34.396Z,1.63
2023-02-21T08:38:55.109Z,1.52
2023-02-21T08:44:17.365Z,1.48
2023-02-21T08:49:42.606Z,1.33
2023-02-21T08:55:03.759Z,1.40
2023-02-21T09:00:28.552Z,1.95
2023-02-21T09:05:49.293Z,1.73
2023-02-21T09:11:09.940Z,1.50
2023-02-21T09:16:30.591Z,1.80
2023-02-21T09:21:55.732Z,1.80
2023-02-21T09:27:17.752Z,1.63
2023-02-21T09:32:39.877Z,1.77
2023-02-21T09:38:01.793Z,1.40
2023-02-21T09:43:33.933Z,1.50
2023-02-21T09:48:54.657Z,1.50
2023-02-21T09:54:32.409Z,1.77
2023-02-21T09:59:53.860Z,1.80
2023-02-21T10:05:34.114Z,1.60
2023-02-21T10:11:03.534Z,1.50
2023-02-21T10:16:56.471Z,1.63
2023-02-21T10:22:28.596Z,1.42
2023-02-21T10:27:51.125Z,1.17
2023-02-21T10:33:12.153Z,1.27
2023-02-21T10:38:33.236Z,1.33
2023-02-21T10:44:01.693Z,1.02
2023-02-21T10:49:29.340Z,1.20
2023-02-21T10:55:11.893Z,1.02
2023-02-21T11:00:48.799Z,1.10
2023-02-21T11:06:10.365Z,1.00
2023-02-21T11:11:37.829Z,1.25
2023-02-21T11:17:23.086Z,1.20
2023-02-21T11:22:47.221Z,1.15
2023-02-21T11:28:10.869Z,1.33
2023-02-21T11:33:33.044Z,1.35
2023-02-21T11:39:06.146Z,1.67
2023-02-21T11:44:41.532Z,1.55
2023-02-21T11:50:15.656Z,1.75
2023-02-21T11:55:38.895Z,1.63
2023-02-21T12:01:13.456Z,1.33
2023-02-21T12:06:48.441Z,1.48
2023-02-21T12:12:13.710Z,1.67
2023-02-21T12:17:52.527Z,1.40
2023-02-21T12:23:37.408Z,1.70
2023-02-21T12:29:23.182Z,1.35
2023-02-21T12:34:53.858Z,1.60
2023-02-21T12:40:30.087Z,1.30
2023-02-21T12:46:52.542Z,1.75
2023-02-21T12:52:21.917Z,1.20
2023-02-21T12:58:00.231Z,2.05
2023-02-21T13:03:27.706Z,1.73
2023-02-21T13:08:56.196Z,1.60
2023-02-21T13:14:20.665Z,1.80
2023-02-21T13:20:01.193Z,1.52
2023-02-21T13:25:41.795Z,1.17
2023-02-21T13:31:07.982Z,1.67
2023-02-21T13:36:39.967Z,1.40
2023-02-21T13:42:19.760Z,1.38
2023-02-21T13:48:00.119Z,1.70
2023-02-21T13:53:32.487Z,1.55
2023-02-21T13:58:53.222Z,1.92
2023-02-21T14:04:51.727Z,1.60
2023-02-21T14:10:26.542Z,1.73
2023-02-21T14:15:51.400Z,1.20
2023-02-21T14:21:18.133Z,1.00
2023-02-21T14:26:57.819Z,1.60
2023-02-21T14:32:34.822Z,1.10
2023-02-21T14:38:00.554Z,1.35
2023-02-21T14:43:49.205Z,1.38
2023-02-21T14:49:28.272Z,1.33
2023-02-21T14:55:21.412Z,1.02
2023-02-21T15:01:07.974Z,1.75
2023-02-21T15:06:31.794Z,1.40
2023-02-21T15:11:52.628Z,1.48
2023-02-21T15:17:20.149Z,1.80
2023-02-21T15:22:41.200Z,1.80
2023-02-21T15:28:04.163Z,1.58
2023-02-21T15:33:27.951Z,1.55
2023-02-21T15:38:54.645Z,2.20
2023-02-21T15:44:18.326Z,1.88
2023-02-21T15:49:44.108Z,1.50
2023-02-21T15:55:19.907Z,1.80
2023-02-21T16:00:46.575Z,1.35
2023-02-21T16:06:25.177Z,1.70
2023-02-21T16:12:01.350Z,1.90
2023-02-21T16:17:42.250Z,1.63
2023-02-21T16:23:35.412Z,1.88
2023-02-21T16:28:59.152Z,2.08
2023-02-21T16:34:19.990Z,2.30
2023-02-21T16:39:41.700Z,1.60
2023-02-21T16:45:02.917Z,1.85
2023-02-21T16:50:41.136Z,2.13
2023-02-21T16:56:03.802Z,2.10
2023-02-21T17:01:30.744Z,2.22
2023-02-21T17:06:55.472Z,1.50
2023-02-21T17:12:16.370Z,1.60
2023-02-21T17:17:38.853Z,1.45
2023-02-21T17:23:00.064Z,2.13
2023-02-21T17:28:22.121Z,2.08
2023-02-21T17:33:43.180Z,2.03
2023-02-21T17:39:03.923Z,2.22
2023-02-21T17:44:27.027Z,1.85
2023-02-21T17:49:51.089Z,2.03
2023-02-21T17:55:18.928Z,1.98
2023-02-21T18:00:39.687Z,1.73
2023-02-21T18:06:00.498Z,1.40
2023-02-21T18:11:23.067Z,1.77
2023-02-21T18:16:44.721Z,1.92
2023-02-21T18:22:06.371Z,2.55
2023-02-21T18:27:27.222Z,2.45
2023-02-21T18:32:48.214Z,1.92
2023-02-21T18:38:10.005Z,2.22
2023-02-21T18:43:30.903Z,2.50
2023-02-21T18:48:51.711Z,2.70
2023-02-21T18:54:12.493Z,3.65
2023-02-21T18:59:35.058Z,3.00
2023-02-21T19:04:55.732Z,3.42
2023-02-21T19:10:18.768Z,3.33
2023-02-21T19:15:39.641Z,2.00
2023-02-21T19:21:00.582Z,1.80
2023-02-21T19:26:21.308Z,1.25
2023-02-21T19:31:42.852Z,2.20
2023-02-21T19:37:03.666Z,2.28
2023-02-21T19:42:24.171Z,2.00
2023-02-21T19:47:45.263Z,1.65
2023-02-21T19:53:07.414Z,1.65
2023-02-21T19:58:27.872Z,1.85
2023-02-21T20:03:50.668Z,2.33
2023-02-21T20:09:12.120Z,1.48
2023-02-21T20:14:33.266Z,1.77
2023-02-21T20:19:54.849Z,1.73
2023-02-21T20:25:15.616Z,2.05
2023-02-21T20:30:36.409Z,1.88
2023-02-21T20:35:57.260Z,1.95
2023-02-21T20:41:18.418Z,2.10
2023-02-21T20:46:39.488Z,1.98
2023-02-21T20:52:00.040Z,1.90
2023-02-21T20:57:21.013Z,1.70
2023-02-21T21:02:42.689Z,2.25
2023-02-21T21:08:04.202Z,2.28
2023-02-21T21:13:24.997Z,2.65
2023-02-21T21:18:49.201Z,3.00
2023-02-21T21:24:11.693Z,2.92
2023-02-21T21:29:32.779Z,2.75
2023-02-21T21:34:58.271Z,1.88
2023-02-21T21:40:24.147Z,2.40
2023-02-21T21:45:44.914Z,2.45
2023-02-21T21:51:06.024Z,3.08
2023-02-21T21:56:28.258Z,3.25
2023-02-21T22:01:49.227Z,3.40
2023-02-21T22:07:11.981Z,3.20
2023-02-21T22:12:32.576Z,3.08
2023-02-21T22:17:55.514Z,3.00
2023-02-21T22:23:21.196Z,3.90
2023-02-21T22:28:42.079Z,3.83
2023-02-21T22:34:02.777Z,3.15
2023-02-21T22:39:24.832Z,2.97
2023-02-21T22:44:49.220Z,3.00
2023-02-21T22:50:13.202Z,2.45
2023-02-21T22:55:37.900Z,2.35
2023-02-21T23:01:00.171Z,1.83
2023-02-21T23:06:21.450Z,2.35
2023-02-21T23:11:47.145Z,2.42
2023-02-21T23:17:08.060Z,2.60
2023-02-21T23:22:28.675Z,4.38
2023-02-21T23:27:55.141Z,4.63
2023-02-21T23:33:23.192Z,3.47
2023-02-21T23:38:43.840Z,3.60
2023-02-21T23:44:06.527Z,3.10
2023-02-21T23:49:27.227Z,2.80
2023-02-21T23:54:47.996Z,2.53
